This is the latest recevied weather packets stored in our database for station/object WA2FTC. If no packets are shown the sender has not sent any weather packets the latest 10 day(s).
| Time | Temp. | Humidity | Pressure | Rain* | Wind** | Luminosity | Snow |
|---|---|---|---|---|---|---|---|
| 1777682728 | 26.67° C | 84% | 1009.2 hPa | 0 mm | - | - | - |
| 1777681826 | 27.22° C | 84% | 1008.7 hPa | 0 mm | - | - | - |
| 1777680925 | 27.22° C | 83% | 1008.3 hPa | 0 mm | - | - | - |
| 1777680923 | 27.22° C | 83% | 1008.3 hPa | 0 mm | - | - | - |
| 1777680023 | 27.78° C | 81% | 1008.2 hPa | 0 mm | - | - | - |
| 1777679122 | 28.33° C | 79% | 1008.3 hPa | 0 mm | - | - | - |
| 1777678223 | 28.89° C | 77% | 1007.9 hPa | 0 mm | - | - | - |
| 1777677320 | 29.44° C | 74% | 1007.9 hPa | 0 mm | - | - | - |
| 1777676419 | 30.56° C | 72% | 1007.7 hPa | 0 mm | - | - | - |
| 1777675525 | 32.22° C | 68% | 1007.6 hPa | 0 mm | - | - | - |
| 1777674647 | 34.44° C | 53% | 1007.2 hPa | 0 mm | - | - | - |
| 1777673746 | 35° C | 53% | 1007.1 hPa | 0 mm | - | - | - |
| 1777672871 | 36.11° C | 49% | 1007.2 hPa | 0 mm | - | - | - |
| 1777671941 | 37.78° C | 48% | 1007.3 hPa | 0 mm | - | - | - |
| 1777671041 | 36.11° C | 51% | 1007.3 hPa | 0 mm | - | - | - |
| 1777670141 | 37.78° C | 49% | 1007.3 hPa | 0 mm | - | - | - |
| 1777669214 | 37.22° C | 49% | 1007.3 hPa | 0 mm | - | - | - |
| 1777668309 | 38.33° C | 46% | 1007.4 hPa | 0 mm | - | - | - |
| 1777667440 | 40° C | 43% | 1007.5 hPa | 0 mm | - | - | - |
| 1777666541 | 42.22° C | 40% | 1007.6 hPa | 0 mm | - | - | - |
| 1777665632 | 45° C | 39% | 1007.8 hPa | 0 mm | - | - | - |
| 1777664731 | 43.33° C | 41% | 1008.2 hPa | 0 mm | - | - | - |
| 1777663837 | 39.44° C | 44% | 1008.3 hPa | 0 mm | - | - | - |
| 1777662926 | 41.11° C | 41% | 1008.5 hPa | 0 mm | - | - | - |
| 1777662026 | 40.56° C | 43% | 1008.9 hPa | 0 mm | - | - | - |
* Rain latest hour (hover to see other rain measurements)
** Current wind speed in m/s (hover to see current wind gust speed)